createdAt,value
2022-11-26T00:00:46.723Z,1021.29
2022-11-26T00:01:46.769Z,1021.25
2022-11-26T00:02:46.800Z,1021.32
2022-11-26T00:03:46.753Z,1021.34
2022-11-26T00:04:46.672Z,1021.35
2022-11-26T00:05:46.690Z,1021.39
2022-11-26T00:06:46.648Z,1021.30
2022-11-26T00:07:46.727Z,1021.35
2022-11-26T00:08:46.646Z,1021.32
2022-11-26T00:09:46.636Z,1021.32
2022-11-26T00:10:46.617Z,1021.28
2022-11-26T00:11:46.619Z,1021.35
2022-11-26T00:12:46.612Z,1021.28
2022-11-26T00:13:46.594Z,1021.30
2022-11-26T00:14:46.564Z,1021.33
2022-11-26T00:15:46.565Z,1021.32
2022-11-26T00:16:46.667Z,1021.43
2022-11-26T00:17:46.573Z,1021.37
2022-11-26T00:18:46.512Z,1021.41
2022-11-26T00:19:46.520Z,1021.35
2022-11-26T00:20:46.525Z,1021.35
2022-11-26T00:21:46.497Z,1021.39
2022-11-26T00:22:46.485Z,1021.41
2022-11-26T00:23:46.485Z,1021.44
2022-11-26T00:24:46.463Z,1021.42
2022-11-26T00:25:46.456Z,1021.41
2022-11-26T00:26:46.447Z,1021.39
2022-11-26T00:27:46.440Z,1021.34
2022-11-26T00:28:46.429Z,1021.36
2022-11-26T00:29:46.441Z,1021.37
2022-11-26T00:30:46.398Z,1021.39
2022-11-26T00:31:46.477Z,1021.38
2022-11-26T00:32:46.356Z,1021.42
2022-11-26T00:33:46.402Z,1021.45
2022-11-26T00:34:46.349Z,1021.41
2022-11-26T00:35:46.337Z,1021.44
2022-11-26T00:36:46.335Z,1021.47
2022-11-26T00:37:46.337Z,1021.49
2022-11-26T00:38:46.327Z,1021.46
2022-11-26T00:39:46.300Z,1021.49
2022-11-26T00:40:46.278Z,1021.50
2022-11-26T00:41:46.283Z,1021.48
2022-11-26T00:42:46.267Z,1021.47
2022-11-26T00:43:46.277Z,1021.44
2022-11-26T00:44:46.227Z,1021.44
2022-11-26T00:45:46.263Z,1021.48
2022-11-26T00:46:46.259Z,1021.50
2022-11-26T00:47:46.220Z,1021.55
2022-11-26T00:48:46.190Z,1021.53
2022-11-26T00:49:46.212Z,1021.61
2022-11-26T00:50:46.169Z,1021.55
2022-11-26T00:51:46.158Z,1021.57
2022-11-26T00:52:46.149Z,1021.60
2022-11-26T00:53:46.210Z,1021.65
2022-11-26T00:54:46.130Z,1021.61
2022-11-26T00:55:46.141Z,1021.72
2022-11-26T00:56:46.100Z,1021.73
2022-11-26T00:57:46.120Z,1021.71
2022-11-26T00:58:46.094Z,1021.76
2022-11-26T00:59:46.119Z,1021.80
2022-11-26T01:00:46.106Z,1021.86
2022-11-26T01:01:46.115Z,1021.88
2022-11-26T01:02:46.111Z,1021.83
2022-11-26T01:03:46.053Z,1021.85
2022-11-26T01:04:46.042Z,1021.85
2022-11-26T01:05:46.014Z,1021.90
2022-11-26T01:06:46.030Z,1021.88
2022-11-26T01:07:46.034Z,1021.89
2022-11-26T01:08:45.984Z,1021.91
2022-11-26T01:09:45.993Z,1021.86
2022-11-26T01:10:45.961Z,1021.83
2022-11-26T01:11:48.727Z,1021.77
2022-11-26T01:12:46.940Z,1021.80
2022-11-26T01:13:45.943Z,1021.85
2022-11-26T01:14:45.971Z,1021.85
2022-11-26T01:15:45.900Z,1021.93
2022-11-26T01:16:45.967Z,1021.91
2022-11-26T01:17:45.898Z,1021.89
2022-11-26T01:18:45.875Z,1021.94
2022-11-26T01:19:45.904Z,1021.97
2022-11-26T01:20:45.862Z,1022.01
2022-11-26T01:21:45.834Z,1022.01
2022-11-26T01:22:45.835Z,1022.00
2022-11-26T01:23:45.826Z,1022.03
2022-11-26T01:24:45.824Z,1022.02
2022-11-26T01:25:45.787Z,1022.02
2022-11-26T01:26:45.796Z,1022.06
2022-11-26T01:27:45.775Z,1022.02
2022-11-26T01:28:45.786Z,1022.06
2022-11-26T01:29:45.765Z,1022.00
2022-11-26T01:30:45.758Z,1022.05
2022-11-26T01:31:45.819Z,1022.06
2022-11-26T01:32:45.721Z,1022.04
2022-11-26T01:33:45.710Z,1022.04
2022-11-26T01:34:45.723Z,1022.07
2022-11-26T01:35:45.727Z,1022.05
2022-11-26T01:36:45.682Z,1022.04
2022-11-26T01:37:45.680Z,1022.13
2022-11-26T01:38:45.647Z,1022.06
2022-11-26T01:39:45.664Z,1022.07
2022-11-26T01:40:45.661Z,1022.10
2022-11-26T01:41:45.647Z,1022.12
2022-11-26T01:42:45.617Z,1022.14
2022-11-26T01:43:45.621Z,1022.20
2022-11-26T01:44:45.586Z,1022.20
2022-11-26T01:45:45.672Z,1022.22
2022-11-26T01:46:45.607Z,1022.32
2022-11-26T01:47:45.592Z,1022.32
2022-11-26T01:48:45.606Z,1022.33
2022-11-26T01:49:45.559Z,1022.38
2022-11-26T01:50:45.545Z,1022.41
2022-11-26T01:51:45.521Z,1022.40
2022-11-26T01:52:45.543Z,1022.38
2022-11-26T01:53:45.506Z,1022.39
2022-11-26T01:54:45.483Z,1022.39
2022-11-26T01:55:45.503Z,1022.35
2022-11-26T01:56:45.472Z,1022.32
2022-11-26T01:57:45.463Z,1022.28
2022-11-26T01:58:45.460Z,1022.38
2022-11-26T01:59:45.440Z,1022.32
2022-11-26T02:00:45.465Z,1022.36
2022-11-26T02:01:45.518Z,1022.27
2022-11-26T02:02:45.533Z,1022.32
2022-11-26T02:03:45.392Z,1022.32
2022-11-26T02:04:45.381Z,1022.37
2022-11-26T02:05:45.495Z,1022.31
2022-11-26T02:06:45.360Z,1022.31
2022-11-26T02:07:45.361Z,1022.40
2022-11-26T02:08:45.396Z,1022.46
2022-11-26T02:09:45.333Z,1022.43
2022-11-26T02:10:45.324Z,1022.42
2022-11-26T02:11:45.359Z,1022.39
2022-11-26T02:12:45.317Z,1022.37
2022-11-26T02:13:45.294Z,1022.33
2022-11-26T02:14:45.313Z,1022.27
2022-11-26T02:15:45.285Z,1022.32
2022-11-26T02:16:45.270Z,1022.27
2022-11-26T02:17:45.280Z,1022.30
2022-11-26T02:18:45.248Z,1022.29
2022-11-26T02:19:45.233Z,1022.34
2022-11-26T02:20:45.249Z,1022.32
2022-11-26T02:21:45.218Z,1022.44
2022-11-26T02:22:45.176Z,1022.47
2022-11-26T02:23:45.199Z,1022.49
2022-11-26T02:24:45.240Z,1022.48
2022-11-26T02:25:45.175Z,1022.54
2022-11-26T02:26:45.178Z,1022.56
2022-11-26T02:27:45.140Z,1022.58
2022-11-26T02:28:45.143Z,1022.59
2022-11-26T02:29:45.121Z,1022.58
2022-11-26T02:30:45.101Z,1022.64
2022-11-26T02:31:45.173Z,1022.59
2022-11-26T02:32:45.134Z,1022.63
2022-11-26T02:33:45.080Z,1022.64
2022-11-26T02:34:45.048Z,1022.63
2022-11-26T02:35:45.072Z,1022.66
2022-11-26T02:36:45.041Z,1022.69
2022-11-26T02:37:45.021Z,1022.75
2022-11-26T02:38:45.048Z,1022.76
2022-11-26T02:39:45.028Z,1022.78
2022-11-26T02:40:44.994Z,1022.76
2022-11-26T02:41:44.998Z,1022.75
2022-11-26T02:42:45.001Z,1022.74
2022-11-26T02:43:45.010Z,1022.69
2022-11-26T02:44:44.972Z,1022.68
2022-11-26T02:45:44.985Z,1022.72
2022-11-26T02:46:44.921Z,1022.68
2022-11-26T02:47:44.960Z,1022.68
2022-11-26T02:48:44.904Z,1022.71
2022-11-26T02:49:44.890Z,1022.67
2022-11-26T02:50:44.892Z,1022.67
2022-11-26T02:51:44.869Z,1022.61
2022-11-26T02:52:44.855Z,1022.64
2022-11-26T02:53:44.844Z,1022.70
2022-11-26T02:54:44.819Z,1022.66
2022-11-26T02:55:44.846Z,1022.65
2022-11-26T02:56:44.851Z,1022.65
2022-11-26T02:57:44.813Z,1022.66
2022-11-26T02:58:44.825Z,1022.69
2022-11-26T02:59:44.802Z,1022.77
2022-11-26T03:00:44.838Z,1022.80
2022-11-26T03:01:44.780Z,1022.80
2022-11-26T03:02:44.784Z,1022.83
2022-11-26T03:03:44.851Z,1022.82
2022-11-26T03:04:44.742Z,1022.80
2022-11-26T03:05:44.723Z,1022.83
2022-11-26T03:06:44.726Z,1022.83
2022-11-26T03:07:44.756Z,1022.83
2022-11-26T03:08:44.711Z,1022.79
2022-11-26T03:09:44.695Z,1022.83
2022-11-26T03:10:44.665Z,1022.86
2022-11-26T03:11:44.773Z,1022.90
2022-11-26T03:12:44.685Z,1022.92
2022-11-26T03:13:44.636Z,1022.90
2022-11-26T03:14:44.646Z,1022.92
2022-11-26T03:15:44.628Z,1022.97
2022-11-26T03:16:44.675Z,1023.00
2022-11-26T03:17:44.635Z,1023.06
2022-11-26T03:18:44.611Z,1023.06
2022-11-26T03:19:44.613Z,1023.00
2022-11-26T03:20:44.606Z,1023.02
2022-11-26T03:21:44.548Z,1023.02
2022-11-26T03:22:44.547Z,1023.04
2022-11-26T03:23:44.569Z,1023.08
2022-11-26T03:24:44.527Z,1023.07
2022-11-26T03:25:44.495Z,1023.11
2022-11-26T03:26:44.537Z,1023.09
2022-11-26T03:27:44.506Z,1023.10
2022-11-26T03:28:44.476Z,1023.08
2022-11-26T03:29:44.508Z,1023.18
2022-11-26T03:30:44.471Z,1023.20
2022-11-26T03:31:44.490Z,1023.17
2022-11-26T03:32:44.432Z,1023.18
2022-11-26T03:33:44.453Z,1023.16
2022-11-26T03:34:44.408Z,1023.18
2022-11-26T03:35:44.438Z,1023.21
2022-11-26T03:36:44.397Z,1023.18
2022-11-26T03:37:44.400Z,1023.23
2022-11-26T03:38:44.373Z,1023.20
2022-11-26T03:39:44.383Z,1023.20
2022-11-26T03:40:44.340Z,1023.18
2022-11-26T03:41:44.396Z,1023.18
2022-11-26T03:42:44.314Z,1023.20
2022-11-26T03:43:44.315Z,1023.16
2022-11-26T03:44:44.303Z,1023.19
2022-11-26T03:45:44.348Z,1023.25
2022-11-26T03:46:44.281Z,1023.28
2022-11-26T03:47:44.322Z,1023.37
2022-11-26T03:48:44.275Z,1023.27
2022-11-26T03:49:44.252Z,1023.27
2022-11-26T03:50:44.238Z,1023.30
2022-11-26T03:51:44.266Z,1023.26
2022-11-26T03:52:44.209Z,1023.30
2022-11-26T03:53:44.233Z,1023.24
2022-11-26T03:54:44.195Z,1023.29
2022-11-26T03:55:44.213Z,1023.27
2022-11-26T03:56:44.174Z,1023.29
2022-11-26T03:57:44.188Z,1023.30
2022-11-26T03:58:44.163Z,1023.32
2022-11-26T03:59:44.172Z,1023.39
2022-11-26T04:00:44.147Z,1023.35
2022-11-26T04:01:44.266Z,1023.32
2022-11-26T04:02:44.180Z,1023.40
2022-11-26T04:03:44.126Z,1023.41
2022-11-26T04:04:44.109Z,1023.40
2022-11-26T04:05:44.117Z,1023.41
2022-11-26T04:06:44.097Z,1023.39
2022-11-26T04:07:44.097Z,1023.38
2022-11-26T04:08:44.045Z,1023.38
2022-11-26T04:09:44.068Z,1023.44
2022-11-26T04:10:44.037Z,1023.35
2022-11-26T04:11:44.036Z,1023.35
2022-11-26T04:12:44.006Z,1023.42
2022-11-26T04:13:44.039Z,1023.36
2022-11-26T04:14:43.985Z,1023.39
2022-11-26T04:15:44.005Z,1023.37
2022-11-26T04:16:44.014Z,1023.42
2022-11-26T04:17:43.960Z,1023.36
2022-11-26T04:18:43.952Z,1023.38
2022-11-26T04:19:43.950Z,1023.42
2022-11-26T04:20:44.688Z,1023.44
2022-11-26T04:21:43.948Z,1023.45
2022-11-26T04:22:43.886Z,1023.44
2022-11-26T04:23:43.887Z,1023.49
2022-11-26T04:24:43.887Z,1023.50
2022-11-26T04:25:43.875Z,1023.48
2022-11-26T04:26:43.861Z,1023.51
2022-11-26T04:27:43.859Z,1023.56
2022-11-26T04:28:43.829Z,1023.57
2022-11-26T04:29:43.833Z,1023.53
2022-11-26T04:30:43.808Z,1023.52
2022-11-26T04:31:43.849Z,1023.56
2022-11-26T04:32:43.787Z,1023.55
2022-11-26T04:33:43.809Z,1023.56
2022-11-26T04:34:43.782Z,1023.59
2022-11-26T04:35:43.760Z,1023.61
2022-11-26T04:36:43.782Z,1023.64
2022-11-26T04:37:43.728Z,1023.68
2022-11-26T04:38:43.720Z,1023.68
2022-11-26T04:39:43.724Z,1023.72
2022-11-26T04:40:43.699Z,1023.69
2022-11-26T04:41:43.700Z,1023.67
2022-11-26T04:42:43.693Z,1023.71
2022-11-26T04:43:43.669Z,1023.80
2022-11-26T04:44:43.701Z,1023.76
2022-11-26T04:45:43.709Z,1023.76
2022-11-26T04:46:43.665Z,1023.71
2022-11-26T04:47:43.622Z,1023.80
2022-11-26T04:48:43.622Z,1023.77
2022-11-26T04:49:43.649Z,1023.81
2022-11-26T04:50:43.605Z,1023.86
2022-11-26T04:51:43.587Z,1023.87
2022-11-26T04:52:43.571Z,1023.87
2022-11-26T04:53:43.555Z,1023.88
2022-11-26T04:54:43.601Z,1023.96
2022-11-26T04:55:43.543Z,1023.96
2022-11-26T04:56:43.546Z,1023.89
2022-11-26T04:57:43.515Z,1023.95
2022-11-26T04:58:43.504Z,1023.93
2022-11-26T04:59:43.540Z,1023.94
2022-11-26T05:00:43.593Z,1023.90
2022-11-26T05:01:43.609Z,1023.87
2022-11-26T05:02:43.505Z,1023.96
2022-11-26T05:03:43.445Z,1023.95
2022-11-26T05:04:43.481Z,1023.96
2022-11-26T05:05:43.444Z,1024.00
2022-11-26T05:06:43.430Z,1023.97
2022-11-26T05:07:43.517Z,1024.05
2022-11-26T05:08:43.406Z,1024.07
2022-11-26T05:09:43.384Z,1024.06
2022-11-26T05:10:43.408Z,1024.07
2022-11-26T05:11:43.388Z,1024.08
2022-11-26T05:12:43.384Z,1024.08
2022-11-26T05:13:43.336Z,1024.16
2022-11-26T05:14:43.339Z,1024.11
2022-11-26T05:15:43.377Z,1024.14
2022-11-26T05:16:43.361Z,1024.15
2022-11-26T05:17:43.328Z,1024.11
2022-11-26T05:18:43.299Z,1024.15
2022-11-26T05:19:43.296Z,1024.20
2022-11-26T05:20:43.257Z,1024.19
2022-11-26T05:21:43.287Z,1024.19
2022-11-26T05:22:43.260Z,1024.19
2022-11-26T05:23:43.237Z,1024.21
2022-11-26T05:24:43.229Z,1024.26
2022-11-26T05:25:43.280Z,1024.18
2022-11-26T05:26:43.213Z,1024.23
2022-11-26T05:27:43.197Z,1024.21
2022-11-26T05:28:43.221Z,1024.20
2022-11-26T05:29:43.176Z,1024.18
2022-11-26T05:30:43.180Z,1024.20
2022-11-26T05:31:43.275Z,1024.20
2022-11-26T05:32:43.149Z,1024.27
2022-11-26T05:33:43.130Z,1024.26
2022-11-26T05:34:43.144Z,1024.25
2022-11-26T05:35:43.141Z,1024.25
2022-11-26T05:36:43.100Z,1024.23
2022-11-26T05:37:43.098Z,1024.24
2022-11-26T05:38:43.110Z,1024.27
2022-11-26T05:39:43.070Z,1024.23
2022-11-26T05:40:43.081Z,1024.19
2022-11-26T05:41:43.080Z,1024.19
2022-11-26T05:42:43.061Z,1024.23
2022-11-26T05:43:43.035Z,1024.26
2022-11-26T05:44:43.041Z,1024.24
2022-11-26T05:45:43.031Z,1024.27
2022-11-26T05:46:42.998Z,1024.25
2022-11-26T05:47:42.972Z,1024.27
2022-11-26T05:48:42.973Z,1024.25
2022-11-26T05:49:42.970Z,1024.28
2022-11-26T05:50:42.982Z,1024.35
2022-11-26T05:51:42.945Z,1024.36
2022-11-26T05:52:42.935Z,1024.32
2022-11-26T05:53:42.914Z,1024.37
2022-11-26T05:54:42.914Z,1024.38
2022-11-26T05:55:42.904Z,1024.37
2022-11-26T05:56:42.955Z,1024.37
2022-11-26T05:57:42.914Z,1024.35
2022-11-26T05:58:42.872Z,1024.40
2022-11-26T05:59:42.859Z,1024.41
2022-11-26T06:00:42.842Z,1024.41
2022-11-26T06:01:42.839Z,1024.40
2022-11-26T06:02:42.981Z,1024.38
2022-11-26T06:03:42.856Z,1024.45
2022-11-26T06:04:42.830Z,1024.44
2022-11-26T06:05:42.784Z,1024.48
2022-11-26T06:06:42.774Z,1024.40
2022-11-26T06:07:44.945Z,1024.42
2022-11-26T06:08:42.795Z,1024.46
2022-11-26T06:09:42.734Z,1024.46
2022-11-26T06:10:42.748Z,1024.46
2022-11-26T06:11:42.718Z,1024.49
2022-11-26T06:12:42.695Z,1024.50
2022-11-26T06:13:42.718Z,1024.56
2022-11-26T06:14:43.527Z,1024.62
2022-11-26T06:15:42.736Z,1024.65
2022-11-26T06:16:42.746Z,1024.63
2022-11-26T06:17:42.663Z,1024.62
2022-11-26T06:18:42.644Z,1024.62
2022-11-26T06:19:42.638Z,1024.63
2022-11-26T06:20:42.658Z,1024.62
2022-11-26T06:21:42.608Z,1024.67
2022-11-26T06:22:42.600Z,1024.71
2022-11-26T06:23:51.643Z,1024.77
2022-11-26T06:24:43.568Z,1024.91
2022-11-26T06:25:42.642Z,1024.86
2022-11-26T06:26:42.580Z,1024.91
2022-11-26T06:27:42.539Z,1024.90
2022-11-26T06:28:42.570Z,1024.91
2022-11-26T06:29:42.536Z,1024.94
2022-11-26T06:30:42.501Z,1024.95
2022-11-26T06:31:42.579Z,1024.96
2022-11-26T06:32:42.531Z,1025.03
2022-11-26T06:33:42.500Z,1025.00
2022-11-26T06:34:44.055Z,1025.03
2022-11-26T06:35:42.463Z,1025.07
2022-11-26T06:36:42.465Z,1025.04
2022-11-26T06:37:42.489Z,1025.00
2022-11-26T06:38:42.441Z,1025.02
2022-11-26T06:39:42.439Z,1025.00
2022-11-26T06:40:42.404Z,1024.97
2022-11-26T06:41:42.421Z,1024.99
2022-11-26T06:42:42.403Z,1025.03
2022-11-26T06:43:42.382Z,1025.01
2022-11-26T06:44:42.350Z,1025.08
2022-11-26T06:45:42.419Z,1025.02
2022-11-26T06:46:42.343Z,1025.04
2022-11-26T06:47:42.341Z,1025.13
2022-11-26T06:48:42.346Z,1025.11
2022-11-26T06:49:42.361Z,1025.15
2022-11-26T06:50:42.322Z,1025.14
2022-11-26T06:51:42.304Z,1025.19
2022-11-26T06:52:43.283Z,1025.16
2022-11-26T06:53:42.276Z,1025.23
2022-11-26T06:54:42.271Z,1025.17
2022-11-26T06:55:42.314Z,1025.20
2022-11-26T06:56:42.250Z,1025.19
2022-11-26T06:57:42.253Z,1025.14
2022-11-26T06:58:42.254Z,1025.18
2022-11-26T06:59:42.193Z,1025.20
2022-11-26T07:00:42.198Z,1025.23
2022-11-26T07:01:42.360Z,1025.20
2022-11-26T07:02:42.262Z,1025.24
2022-11-26T07:03:42.168Z,1025.29
2022-11-26T07:04:42.159Z,1025.25
2022-11-26T07:05:42.183Z,1025.28
2022-11-26T07:06:42.188Z,1025.25
2022-11-26T07:07:42.258Z,1025.32
2022-11-26T07:08:42.155Z,1025.24
2022-11-26T07:09:42.124Z,1025.26
2022-11-26T07:10:47.520Z,1025.31
2022-11-26T07:11:43.126Z,1025.25
2022-11-26T07:12:42.109Z,1025.32
2022-11-26T07:13:42.093Z,1025.28
2022-11-26T07:14:42.212Z,1025.30
2022-11-26T07:15:42.113Z,1025.39
2022-11-26T07:16:42.039Z,1025.37
2022-11-26T07:17:42.037Z,1025.36
2022-11-26T07:18:42.253Z,1025.43
2022-11-26T07:19:42.029Z,1025.44
2022-11-26T07:20:42.130Z,1025.42
2022-11-26T07:21:42.028Z,1025.47
2022-11-26T07:22:42.087Z,1025.50
2022-11-26T07:23:41.958Z,1025.44
2022-11-26T07:24:41.941Z,1025.50
2022-11-26T07:25:41.958Z,1025.52
2022-11-26T07:26:41.967Z,1025.50
2022-11-26T07:27:41.983Z,1025.52
2022-11-26T07:28:42.016Z,1025.49
2022-11-26T07:29:41.879Z,1025.57
2022-11-26T07:30:41.882Z,1025.58
2022-11-26T07:31:41.966Z,1025.53
2022-11-26T07:32:41.839Z,1025.52
2022-11-26T07:33:41.865Z,1025.51
2022-11-26T07:34:41.927Z,1025.54
2022-11-26T07:35:41.860Z,1025.58
2022-11-26T07:36:41.809Z,1025.55
2022-11-26T07:37:41.811Z,1025.61
2022-11-26T07:38:41.784Z,1025.61
2022-11-26T07:39:41.794Z,1025.58
2022-11-26T07:40:41.751Z,1025.60
2022-11-26T07:41:41.765Z,1025.56
2022-11-26T07:42:41.748Z,1025.58
2022-11-26T07:43:41.751Z,1025.59
2022-11-26T07:44:41.726Z,1025.60
2022-11-26T07:45:41.860Z,1025.65
2022-11-26T07:46:41.756Z,1025.62
2022-11-26T07:47:41.742Z,1025.64
2022-11-26T07:48:41.706Z,1025.62
2022-11-26T07:49:41.667Z,1025.64
2022-11-26T07:50:41.704Z,1025.64
2022-11-26T07:51:41.752Z,1025.71
2022-11-26T07:52:41.747Z,1025.67
2022-11-26T07:53:43.476Z,1025.76
2022-11-26T07:55:51.571Z,1025.85
2022-11-26T07:56:51.564Z,1025.77
2022-11-26T07:57:51.554Z,1025.81
2022-11-26T07:58:51.766Z,1025.90
2022-11-26T07:59:51.763Z,1025.90
2022-11-26T08:00:54.656Z,1025.92
2022-11-26T08:01:51.630Z,1025.94
2022-11-26T08:02:51.769Z,1025.96
2022-11-26T08:03:51.660Z,1025.96
2022-11-26T08:04:51.715Z,1026.00
2022-11-26T08:05:51.607Z,1026.05
2022-11-26T08:06:51.758Z,1026.02
2022-11-26T08:07:52.205Z,1026.00
2022-11-26T08:08:51.870Z,1026.01
2022-11-26T08:09:51.606Z,1026.06
2022-11-26T08:10:51.587Z,1026.06
2022-11-26T08:11:51.576Z,1026.07
2022-11-26T08:12:51.546Z,1026.13
2022-11-26T08:13:51.627Z,1026.10
2022-11-26T08:14:51.574Z,1026.15
2022-11-26T08:15:52.041Z,1026.13
2022-11-26T08:16:51.555Z,1026.18
2022-11-26T08:17:51.837Z,1026.15
2022-11-26T08:18:51.481Z,1026.19
2022-11-26T08:19:51.444Z,1026.18
2022-11-26T08:20:51.747Z,1026.18
2022-11-26T08:21:51.479Z,1026.18
2022-11-26T08:22:51.530Z,1026.24
2022-11-26T08:23:52.201Z,1026.29
2022-11-26T08:24:52.199Z,1026.28
2022-11-26T08:26:22.790Z,1026.29
2022-11-26T08:26:52.388Z,1026.31
2022-11-26T08:27:51.972Z,1026.35
2022-11-26T08:28:51.452Z,1026.38
2022-11-26T08:29:52.348Z,1026.38
2022-11-26T08:30:51.810Z,1026.46
2022-11-26T08:31:51.671Z,1026.44
2022-11-26T08:32:52.119Z,1026.44
2022-11-26T08:33:58.381Z,1026.47
2022-11-26T08:34:51.323Z,1026.42
2022-11-26T08:36:06.986Z,1026.45
2022-11-26T08:36:52.398Z,1026.41
2022-11-26T08:37:51.303Z,1026.45
2022-11-26T08:38:51.323Z,1026.43
2022-11-26T08:39:51.133Z,1026.45
2022-11-26T08:40:51.111Z,1026.46
2022-11-26T08:41:52.678Z,1026.45
2022-11-26T08:42:51.107Z,1026.46
2022-11-26T08:44:06.275Z,1026.47
2022-11-26T08:44:52.171Z,1026.44
2022-11-26T08:45:51.196Z,1026.51
2022-11-26T08:46:51.055Z,1026.45
2022-11-26T08:47:51.027Z,1026.49
2022-11-26T08:48:51.002Z,1026.52
2022-11-26T08:49:51.037Z,1026.50
2022-11-26T08:50:51.033Z,1026.51
2022-11-26T08:51:50.963Z,1026.48
2022-11-26T08:52:50.970Z,1026.50
2022-11-26T08:53:50.934Z,1026.51
2022-11-26T08:54:51.012Z,1026.50
2022-11-26T08:56:00.176Z,1026.54
2022-11-26T08:56:51.903Z,1026.46
2022-11-26T08:57:50.859Z,1026.48
2022-11-26T08:58:50.846Z,1026.44
2022-11-26T08:59:50.871Z,1026.44
2022-11-26T09:00:50.866Z,1026.49
2022-11-26T09:01:50.904Z,1026.54
2022-11-26T09:02:51.162Z,1026.54
2022-11-26T09:03:50.848Z,1026.53
2022-11-26T09:04:50.927Z,1026.54
2022-11-26T09:05:50.836Z,1026.60
2022-11-26T09:06:50.859Z,1026.60
2022-11-26T09:07:50.974Z,1026.67
2022-11-26T09:08:50.917Z,1026.68
2022-11-26T09:09:50.777Z,1026.64
2022-11-26T09:10:50.759Z,1026.61
2022-11-26T09:11:50.769Z,1026.61
2022-11-26T09:12:50.770Z,1026.65
2022-11-26T09:13:50.671Z,1026.65
2022-11-26T09:14:50.800Z,1026.64
2022-11-26T09:15:50.688Z,1026.61
2022-11-26T09:16:50.785Z,1026.67
2022-11-26T09:17:50.726Z,1026.63
2022-11-26T09:18:50.688Z,1026.59
2022-11-26T09:19:50.639Z,1026.68
2022-11-26T09:20:55.651Z,1026.72
2022-11-26T09:21:51.590Z,1026.75
2022-11-26T09:22:50.607Z,1026.76
2022-11-26T09:23:50.651Z,1026.81
2022-11-26T09:24:50.640Z,1026.76
2022-11-26T09:25:50.615Z,1026.76
2022-11-26T09:26:50.591Z,1026.77
2022-11-26T09:27:50.529Z,1026.87
2022-11-26T09:28:50.555Z,1026.85
2022-11-26T09:29:50.689Z,1026.82
2022-11-26T09:30:50.540Z,1026.84
2022-11-26T09:32:21.414Z,1026.86
2022-11-26T09:32:51.587Z,1026.84
2022-11-26T09:33:50.531Z,1026.87
2022-11-26T09:34:50.516Z,1026.82
2022-11-26T09:35:50.540Z,1026.81
2022-11-26T09:36:50.502Z,1026.86
2022-11-26T09:37:51.837Z,1026.79
2022-11-26T09:38:50.452Z,1026.81
2022-11-26T09:39:50.442Z,1026.81
2022-11-26T09:40:50.543Z,1026.80
2022-11-26T09:41:50.413Z,1026.79
2022-11-26T09:42:50.374Z,1026.81
2022-11-26T09:43:53.227Z,1026.86
2022-11-26T09:44:50.452Z,1026.81
2022-11-26T09:45:50.411Z,1026.79
2022-11-26T09:47:11.079Z,1026.81
2022-11-26T09:47:51.354Z,1026.86
2022-11-26T09:48:50.351Z,1026.86
2022-11-26T09:49:50.315Z,1026.86
2022-11-26T09:50:50.366Z,1026.92
2022-11-26T09:51:50.448Z,1026.93
2022-11-26T09:52:50.446Z,1026.92
2022-11-26T09:53:50.397Z,1026.92
2022-11-26T09:54:50.346Z,1026.98
2022-11-26T09:55:50.365Z,1026.95
2022-11-26T09:56:50.227Z,1026.98
2022-11-26T09:57:50.368Z,1026.97
2022-11-26T09:58:50.227Z,1027.04
2022-11-26T09:59:50.224Z,1027.01
2022-11-26T10:00:50.254Z,1027.08
2022-11-26T10:01:50.165Z,1027.01
2022-11-26T10:02:50.225Z,1027.00
2022-11-26T10:03:50.157Z,1027.01
2022-11-26T10:04:50.277Z,1027.02
2022-11-26T10:05:50.466Z,1027.01
2022-11-26T10:06:50.125Z,1027.11
2022-11-26T10:07:50.229Z,1027.10
2022-11-26T10:08:50.169Z,1027.03
2022-11-26T10:09:50.177Z,1027.11
2022-11-26T10:10:50.046Z,1027.07
2022-11-26T10:11:50.111Z,1027.06
2022-11-26T10:13:16.865Z,1027.09
2022-11-26T10:13:51.004Z,1027.11
2022-11-26T10:14:50.070Z,1027.03
2022-11-26T10:15:50.061Z,1027.08
2022-11-26T10:16:50.089Z,1027.06
2022-11-26T10:17:50.069Z,1027.06
2022-11-26T10:18:50.123Z,1027.03
2022-11-26T10:19:50.054Z,1027.09
2022-11-26T10:20:50.008Z,1027.13
2022-11-26T10:21:59.113Z,1027.07
2022-11-26T10:22:56.741Z,1027.12
2022-11-26T10:23:51.078Z,1027.11
2022-11-26T10:24:49.903Z,1027.11
2022-11-26T10:25:49.947Z,1027.10
2022-11-26T10:26:50.171Z,1027.09
2022-11-26T10:27:49.974Z,1027.11
2022-11-26T10:28:49.994Z,1027.10
2022-11-26T10:29:50.006Z,1027.09
2022-11-26T10:30:49.821Z,1027.07
2022-11-26T10:31:49.967Z,1027.11
2022-11-26T10:32:49.971Z,1027.09
2022-11-26T10:33:50.149Z,1027.13
2022-11-26T10:34:49.843Z,1027.12
2022-11-26T10:35:49.825Z,1027.10
2022-11-26T10:36:49.882Z,1027.16
2022-11-26T10:37:49.925Z,1027.13
2022-11-26T10:38:49.825Z,1027.17
2022-11-26T10:39:52.933Z,1027.21
2022-11-26T10:40:50.846Z,1027.23
2022-11-26T10:41:49.803Z,1027.26
2022-11-26T10:42:49.764Z,1027.23
2022-11-26T10:43:49.753Z,1027.23
2022-11-26T10:44:49.818Z,1027.26
2022-11-26T10:45:49.943Z,1027.24
2022-11-26T10:46:49.863Z,1027.26
2022-11-26T10:47:49.735Z,1027.24
2022-11-26T10:48:49.646Z,1027.27
2022-11-26T10:49:49.702Z,1027.28
2022-11-26T10:50:49.652Z,1027.29
2022-11-26T10:51:49.636Z,1027.29
2022-11-26T10:52:49.685Z,1027.35
2022-11-26T10:53:49.657Z,1027.36
2022-11-26T10:54:49.642Z,1027.32
2022-11-26T10:55:49.583Z,1027.39
2022-11-26T10:56:49.788Z,1027.43
2022-11-26T10:57:49.555Z,1027.41
2022-11-26T10:58:49.586Z,1027.37
2022-11-26T10:59:49.662Z,1027.38
2022-11-26T11:00:49.589Z,1027.45
2022-11-26T11:01:51.585Z,1027.38
2022-11-26T11:02:49.702Z,1027.44
2022-11-26T11:04:50.786Z,1027.43
2022-11-26T11:05:49.683Z,1027.38
2022-11-26T11:06:49.477Z,1027.36
2022-11-26T11:07:49.580Z,1027.37
2022-11-26T11:08:49.514Z,1027.37
2022-11-26T11:09:49.539Z,1027.39
2022-11-26T11:10:49.487Z,1027.37
2022-11-26T11:11:49.484Z,1027.36
2022-11-26T11:12:49.590Z,1027.40
2022-11-26T11:13:49.402Z,1027.43
2022-11-26T11:14:50.032Z,1027.40
2022-11-26T11:15:49.421Z,1027.44
2022-11-26T11:16:49.493Z,1027.46
2022-11-26T11:17:49.433Z,1027.41
2022-11-26T11:18:49.482Z,1027.45
2022-11-26T11:19:49.383Z,1027.45
2022-11-26T11:20:49.351Z,1027.46
2022-11-26T11:21:49.325Z,1027.49
2022-11-26T11:22:51.075Z,1027.39
2022-11-26T11:24:50.351Z,1027.36
2022-11-26T11:25:49.310Z,1027.42
2022-11-26T11:26:49.847Z,1027.44
2022-11-26T11:27:49.376Z,1027.48
2022-11-26T11:28:49.290Z,1027.41
2022-11-26T11:29:49.321Z,1027.40
2022-11-26T11:30:49.464Z,1027.41
2022-11-26T11:31:49.297Z,1027.43
2022-11-26T11:32:49.322Z,1027.38
2022-11-26T11:33:49.243Z,1027.39
2022-11-26T11:34:49.402Z,1027.42
2022-11-26T11:35:49.305Z,1027.42
2022-11-26T11:36:49.178Z,1027.44
2022-11-26T11:37:49.357Z,1027.42
2022-11-26T11:38:49.305Z,1027.49
2022-11-26T11:39:49.194Z,1027.48
2022-11-26T11:40:49.298Z,1027.45
2022-11-26T11:41:49.257Z,1027.47
2022-11-26T11:42:49.228Z,1027.38
2022-11-26T11:43:49.124Z,1027.43
2022-11-26T11:44:49.167Z,1027.45
2022-11-26T11:45:53.085Z,1027.44
2022-11-26T11:46:49.110Z,1027.46
2022-11-26T11:47:49.024Z,1027.54
2022-11-26T11:48:49.176Z,1027.52
2022-11-26T11:49:49.238Z,1027.48
2022-11-26T11:50:49.364Z,1027.45
2022-11-26T11:51:49.099Z,1027.45
2022-11-26T11:52:49.209Z,1027.43
2022-11-26T11:53:49.061Z,1027.49
2022-11-26T11:54:49.009Z,1027.49
2022-11-26T11:55:49.168Z,1027.51
2022-11-26T11:56:49.125Z,1027.51
2022-11-26T11:57:48.949Z,1027.54
2022-11-26T11:58:48.940Z,1027.57
2022-11-26T11:59:48.948Z,1027.54
2022-11-26T12:00:48.879Z,1027.51
2022-11-26T12:01:49.196Z,1027.55
2022-11-26T12:02:48.883Z,1027.57
2022-11-26T12:03:49.286Z,1027.50
2022-11-26T12:04:49.192Z,1027.52
2022-11-26T12:05:49.887Z,1027.49
2022-11-26T12:06:49.305Z,1027.53
2022-11-26T12:07:49.206Z,1027.52
2022-11-26T12:08:50.822Z,1027.48